SPIT21 YMES-YMES
Flight info
| Callsign | SPIT21 |
|---|---|
| Flight time | 0h 59m |
| Altitude | 6000 |
| Route | ESL DCT WSL DCT ESL |
| Aircraft | SPIT/L-SDFGRWY/S |
Departure
| Time | 2026-05-04 11:17 |
|---|---|
| Airport | RAAF Base East Sale (YMES) |
Arrival
| Time | 2026-05-04 12:16 |
|---|---|
| Airport | RAAF Base East Sale (YMES) |
| Time | Latitude | Longitude | Altitude | Speed | Heading |
|---|---|---|---|---|---|
| 2026-05-04 10:58 | -38.09902 | 147.13594 | 27 ft | 0 kts | 188° |
| 2026-05-04 11:12 | -38.09885 | 147.13577 | 28 ft | 6 kts | 7° |
| 2026-05-04 11:12 | -38.09867 | 147.13528 | 27 ft | 9 kts | 277° |
| 2026-05-04 11:12 | -38.09840 | 147.13466 | 27 ft | 8 kts | 357° |
| 2026-05-04 11:12 | -38.09783 | 147.13457 | 26 ft | 10 kts | 311° |
| 2026-05-04 11:13 | -38.09762 | 147.13371 | 24 ft | 11 kts | 281° |
| 2026-05-04 11:13 | -38.09750 | 147.13273 | 25 ft | 12 kts | 287° |
| 2026-05-04 11:13 | -38.09739 | 147.13162 | 23 ft | 13 kts | 289° |
| 2026-05-04 11:13 | -38.09721 | 147.13037 | 21 ft | 16 kts | 274° |
| 2026-05-04 11:14 | -38.09708 | 147.12903 | 21 ft | 15 kts | 278° |
| 2026-05-04 11:14 | -38.09674 | 147.12826 | 23 ft | 7 kts | 347° |
| 2026-05-04 11:14 | -38.09658 | 147.12824 | 25 ft | 0 kts | 3° |
| 2026-05-04 11:16 | -38.09661 | 147.13649 | 28 ft | 101 kts | 99° |
| 2026-05-04 11:16 | -38.09784 | 147.14747 | 149 ft | 144 kts | 101° |
| 2026-05-04 11:16 | -38.09963 | 147.16100 | 523 ft | 165 kts | 99° |
| 2026-05-04 11:17 | -38.10173 | 147.17570 | 989 ft | 175 kts | 101° |
| 2026-05-04 11:17 | -38.10539 | 147.19060 | 1438 ft | 177 kts | 122° |
| 2026-05-04 11:19 | -38.10735 | 147.10949 | 2121 ft | 216 kts | 296° |
| 2026-05-04 11:19 | -38.10059 | 147.09233 | 2193 ft | 219 kts | 298° |
| 2026-05-04 11:19 | -38.09308 | 147.07528 | 2231 ft | 222 kts | 301° |
| 2026-05-04 11:19 | -38.08551 | 147.05799 | 2220 ft | 227 kts | 293° |
| 2026-05-04 11:20 | -38.08297 | 147.03832 | 2062 ft | 235 kts | 272° |
| 2026-05-04 11:20 | -38.08438 | 147.01741 | 1891 ft | 239 kts | 263° |
| 2026-05-04 11:20 | -38.08733 | 146.99665 | 1832 ft | 238 kts | 260° |
| 2026-05-04 11:20 | -38.09222 | 146.97693 | 1907 ft | 235 kts | 242° |
| 2026-05-04 11:22 | -38.13921 | 146.96867 | 866 ft | 268 kts | 345° |
| 2026-05-04 11:22 | -38.12183 | 146.96381 | 962 ft | 253 kts | 10° |
| 2026-05-04 11:23 | -38.11322 | 146.98113 | 903 ft | 257 kts | 102° |
| 2026-05-04 11:23 | -38.12612 | 146.99331 | 827 ft | 251 kts | 188° |
| 2026-05-04 11:24 | -38.11895 | 146.95428 | 2313 ft | 176 kts | 357° |
| 2026-05-04 11:25 | -38.11437 | 146.96789 | 1501 ft | 244 kts | 121° |
| 2026-05-04 11:25 | -38.12733 | 146.98467 | 979 ft | 264 kts | 139° |
| 2026-05-04 11:25 | -38.14035 | 146.99963 | 1310 ft | 247 kts | 139° |
| 2026-05-04 11:26 | -38.16675 | 146.99753 | 513 ft | 258 kts | 266° |
| 2026-05-04 11:27 | -38.07081 | 146.98079 | 1128 ft | 228 kts | 84° |
| 2026-05-04 11:28 | -38.08134 | 146.99198 | 916 ft | 238 kts | 197° |
| 2026-05-04 11:28 | -38.08991 | 146.97468 | 418 ft | 253 kts | 271° |
| 2026-05-04 11:28 | -38.08711 | 146.95333 | 602 ft | 239 kts | 281° |
| 2026-05-04 11:28 | -38.08284 | 146.93462 | 1317 ft | 207 kts | 313° |
| 2026-05-04 11:29 | -38.07243 | 146.94128 | 1082 ft | 246 kts | 94° |
| 2026-05-04 11:29 | -38.08414 | 146.95835 | 501 ft | 267 kts | 142° |
| 2026-05-04 11:29 | -38.08986 | 146.97841 | 618 ft | 251 kts | 71° |
| 2026-05-04 11:29 | -38.07802 | 146.99322 | 731 ft | 240 kts | 28° |
| 2026-05-04 11:31 | -38.08833 | 146.92034 | 1090 ft | 227 kts | 218° |
| 2026-05-04 11:33 | -38.16374 | 146.98287 | 1446 ft | 234 kts | 198° |
| 2026-05-04 11:33 | -38.17396 | 146.96966 | 1549 ft | 217 kts | 271° |
| 2026-05-04 11:33 | -38.16299 | 146.95852 | 1045 ft | 244 kts | 359° |
| 2026-05-04 11:34 | -38.14565 | 146.96047 | 725 ft | 252 kts | 5° |
| 2026-05-04 11:34 | -38.12817 | 146.96279 | 474 ft | 252 kts | 6° |
| 2026-05-04 11:34 | -38.11123 | 146.96526 | 430 ft | 246 kts | 7° |
| 2026-05-04 11:34 | -38.09427 | 146.96809 | 318 ft | 245 kts | 8° |
| 2026-05-04 11:35 | -38.07772 | 146.97161 | 480 ft | 231 kts | 13° |
| 2026-05-04 11:35 | -38.07087 | 146.98503 | 1288 ft | 212 kts | 117° |
| 2026-05-04 11:35 | -38.08427 | 146.98666 | 728 ft | 237 kts | 221° |
| 2026-05-04 11:35 | -38.08992 | 146.96716 | 327 ft | 249 kts | 276° |
| 2026-05-04 11:36 | -38.08697 | 146.94599 | 487 ft | 236 kts | 281° |
| 2026-05-04 11:36 | -38.08348 | 146.92770 | 1415 ft | 194 kts | 303° |
| 2026-05-04 11:36 | -38.07261 | 146.93156 | 1273 ft | 236 kts | 76° |
| 2026-05-04 11:36 | -38.08007 | 146.95083 | 555 ft | 267 kts | 135° |
| 2026-05-04 11:37 | -38.08990 | 146.96970 | 493 ft | 256 kts | 99° |
| 2026-05-04 11:37 | -38.09250 | 146.99122 | 678 ft | 242 kts | 111° |
| 2026-05-04 11:37 | -38.10514 | 147.00384 | 813 ft | 237 kts | 168° |
| 2026-05-04 11:37 | -38.12142 | 147.00310 | 874 ft | 234 kts | 190° |
| 2026-05-04 11:38 | -38.13716 | 146.99996 | 1024 ft | 230 kts | 191° |
| 2026-05-04 11:38 | -38.15286 | 146.99706 | 1151 ft | 230 kts | 190° |
| 2026-05-04 11:38 | -38.16707 | 146.99037 | 1458 ft | 212 kts | 231° |
| 2026-05-04 11:38 | -38.16837 | 146.97317 | 1406 ft | 215 kts | 299° |
| 2026-05-04 11:39 | -38.15493 | 146.96338 | 884 ft | 242 kts | 350° |
| 2026-05-04 11:39 | -38.13790 | 146.96337 | 651 ft | 246 kts | 3° |
| 2026-05-04 11:40 | -38.08986 | 146.97669 | 531 ft | 249 kts | 260° |
| 2026-05-04 11:41 | -38.08802 | 146.95489 | 487 ft | 242 kts | 281° |
| 2026-05-04 11:41 | -38.08510 | 146.93539 | 1225 ft | 205 kts | 289° |
| 2026-05-04 11:41 | -38.07430 | 146.93095 | 1464 ft | 222 kts | 44° |
| 2026-05-04 11:41 | -38.07793 | 146.95023 | 601 ft | 268 kts | 136° |
| 2026-05-04 11:42 | -38.08987 | 146.96766 | 536 ft | 258 kts | 109° |
| 2026-05-04 11:42 | -38.08817 | 146.98860 | 968 ft | 228 kts | 60° |
| 2026-05-04 11:42 | -38.07793 | 147.00299 | 1283 ft | 220 kts | 47° |
| 2026-05-04 11:42 | -38.07654 | 147.02089 | 1621 ft | 224 kts | 127° |
| 2026-05-04 11:43 | -38.09031 | 147.02101 | 1025 ft | 237 kts | 233° |
| 2026-05-04 11:43 | -38.09239 | 147.00021 | 423 ft | 255 kts | 278° |
| 2026-05-04 11:43 | -38.08985 | 146.97810 | 359 ft | 249 kts | 280° |
| 2026-05-04 11:43 | -38.08711 | 146.95657 | 361 ft | 243 kts | 283° |
| 2026-05-04 11:44 | -38.07761 | 146.94252 | 933 ft | 212 kts | 327° |
| 2026-05-04 11:44 | -38.08398 | 146.93782 | 506 ft | 245 kts | 132° |
| 2026-05-04 11:44 | -38.08828 | 146.95875 | 294 ft | 250 kts | 86° |
| 2026-05-04 11:44 | -38.09425 | 146.97873 | 298 ft | 250 kts | 135° |
| 2026-05-04 11:45 | -38.10520 | 146.99246 | 1457 ft | 203 kts | 123° |
| 2026-05-04 11:45 | -38.09835 | 146.99977 | 817 ft | 214 kts | 321° |
| 2026-05-04 11:45 | -38.09242 | 146.98090 | 246 ft | 244 kts | 279° |
| 2026-05-04 11:45 | -38.08955 | 146.95964 | 197 ft | 245 kts | 281° |
| 2026-05-04 11:46 | -38.08952 | 146.94082 | 1001 ft | 193 kts | 228° |
| 2026-05-04 11:46 | -38.09994 | 146.93416 | 1023 ft | 178 kts | 209° |
| 2026-05-04 11:46 | -38.10823 | 146.94192 | 1173 ft | 186 kts | 94° |
| 2026-05-04 11:46 | -38.10933 | 146.95861 | 1231 ft | 200 kts | 92° |
| 2026-05-04 11:47 | -38.11126 | 146.97643 | 1418 ft | 201 kts | 100° |
| 2026-05-04 11:47 | -38.11226 | 146.99385 | 1689 ft | 197 kts | 103° |
| 2026-05-04 11:47 | -38.12109 | 146.99827 | 1417 ft | 143 kts | 226° |
| 2026-05-04 11:47 | -38.12187 | 146.98713 | 983 ft | 138 kts | 303° |
| 2026-05-04 11:48 | -38.11342 | 146.98319 | 830 ft | 143 kts | 23° |
| 2026-05-04 11:48 | -38.11140 | 146.99529 | 787 ft | 159 kts | 105° |
| 2026-05-04 11:48 | -38.11792 | 146.99453 | 850 ft | 153 kts | 304° |
| 2026-05-04 11:48 | -38.10761 | 146.98725 | 564 ft | 186 kts | 334° |
| 2026-05-04 11:49 | -38.09582 | 146.97874 | 434 ft | 208 kts | 320° |
| 2026-05-04 11:49 | -38.09086 | 146.96095 | 321 ft | 236 kts | 258° |
| 2026-05-04 11:49 | -38.09576 | 146.94257 | 1175 ft | 204 kts | 262° |
| 2026-05-04 11:49 | -38.09507 | 146.92469 | 1308 ft | 213 kts | 253° |
| 2026-05-04 11:50 | -38.10641 | 146.92071 | 1592 ft | 155 kts | 173° |
| 2026-05-04 11:50 | -38.11725 | 146.92223 | 575 ft | 140 kts | 185° |
| 2026-05-04 11:50 | -38.12701 | 146.92564 | 971 ft | 175 kts | 142° |
| 2026-05-04 11:50 | -38.13461 | 146.93957 | 1222 ft | 179 kts | 111° |
| 2026-05-04 11:51 | -38.13730 | 146.95486 | 1962 ft | 195 kts | 85° |
| 2026-05-04 11:51 | -38.12944 | 146.95697 | 403 ft | 261 kts | 271° |
| 2026-05-04 11:51 | -38.12524 | 146.94557 | 1608 ft | 213 kts | 30° |
| 2026-05-04 11:51 | -38.12010 | 146.96259 | 1582 ft | 234 kts | 102° |
| 2026-05-04 11:52 | -38.12955 | 146.97445 | 1313 ft | 165 kts | 174° |
| 2026-05-04 11:52 | -38.13949 | 146.96991 | 1131 ft | 165 kts | 232° |
| 2026-05-04 11:52 | -38.14219 | 146.95615 | 1361 ft | 175 kts | 292° |
| 2026-05-04 11:52 | -38.13237 | 146.94571 | 1322 ft | 202 kts | 335° |
| 2026-05-04 11:53 | -38.11818 | 146.94157 | 1384 ft | 214 kts | 351° |
| 2026-05-04 11:53 | -38.10329 | 146.94021 | 1523 ft | 217 kts | 353° |
| 2026-05-04 11:53 | -38.08824 | 146.93875 | 1683 ft | 216 kts | 352° |
| 2026-05-04 11:53 | -38.07293 | 146.93723 | 1590 ft | 226 kts | 353° |
| 2026-05-04 11:55 | -38.13705 | 146.95057 | 1437 ft | 227 kts | 242° |
| 2026-05-04 11:55 | -38.15050 | 146.94153 | 1422 ft | 255 kts | 169° |
| 2026-05-04 11:56 | -38.15897 | 146.95912 | 1136 ft | 263 kts | 72° |
| 2026-05-04 11:56 | -38.14474 | 146.96978 | 862 ft | 255 kts | 352° |
| 2026-05-04 11:56 | -38.12797 | 146.96343 | 828 ft | 248 kts | 348° |
| 2026-05-04 11:56 | -38.11086 | 146.96509 | 560 ft | 255 kts | 8° |
| 2026-05-04 11:57 | -38.09297 | 146.96832 | 354 ft | 257 kts | 8° |
| 2026-05-04 11:57 | -38.07665 | 146.97312 | 941 ft | 223 kts | 32° |
| 2026-05-04 11:57 | -38.07812 | 146.98956 | 1202 ft | 243 kts | 161° |
| 2026-05-04 11:57 | -38.09016 | 146.97849 | 554 ft | 255 kts | 263° |
| 2026-05-04 11:58 | -38.08804 | 146.95565 | 308 ft | 259 kts | 280° |
| 2026-05-04 11:58 | -38.08495 | 146.93547 | 1466 ft | 195 kts | 294° |
| 2026-05-04 11:58 | -38.07417 | 146.93547 | 1590 ft | 237 kts | 64° |
| 2026-05-04 11:58 | -38.08246 | 146.95542 | 603 ft | 284 kts | 136° |
| 2026-05-04 11:59 | -38.09064 | 146.97608 | 563 ft | 268 kts | 85° |
| 2026-05-04 11:59 | -38.08038 | 146.99361 | 790 ft | 243 kts | 28° |
| 2026-05-04 11:59 | -38.07309 | 147.00853 | 1865 ft | 227 kts | 114° |
| 2026-05-04 11:59 | -38.08712 | 147.01051 | 1145 ft | 247 kts | 229° |
| 2026-05-04 12:00 | -38.09032 | 146.98899 | 431 ft | 265 kts | 278° |
| 2026-05-04 12:00 | -38.08797 | 146.96607 | 387 ft | 258 kts | 278° |
| 2026-05-04 12:00 | -38.09065 | 146.94535 | 850 ft | 236 kts | 232° |
| 2026-05-04 12:00 | -38.09196 | 146.93098 | 1064 ft | 212 kts | 358° |
| 2026-05-04 12:01 | -38.08790 | 146.94966 | 218 ft | 274 kts | 99° |
| 2026-05-04 12:01 | -38.09103 | 146.97392 | 241 ft | 276 kts | 99° |
| 2026-05-04 12:02 | -38.12699 | 146.99776 | 1051 ft | 217 kts | 240° |
| 2026-05-04 12:03 | -38.13252 | 147.00641 | 811 ft | 227 kts | 34° |
| 2026-05-04 12:03 | -38.11757 | 147.00675 | 596 ft | 241 kts | 336° |
| 2026-05-04 12:03 | -38.10567 | 146.99030 | 535 ft | 263 kts | 304° |
| 2026-05-04 12:03 | -38.09386 | 146.97252 | 377 ft | 260 kts | 314° |
| 2026-05-04 12:04 | -38.09184 | 146.95233 | 819 ft | 236 kts | 241° |
| 2026-05-04 12:04 | -38.10070 | 146.94125 | 974 ft | 146 kts | 230° |
| 2026-05-04 12:04 | -38.11061 | 146.94046 | 670 ft | 189 kts | 119° |
| 2026-05-04 12:04 | -38.10668 | 146.95499 | 756 ft | 190 kts | 27° |
| 2026-05-04 12:05 | -38.09508 | 146.95396 | 1408 ft | 161 kts | 318° |
| 2026-05-04 12:05 | -38.09965 | 146.94442 | 481 ft | 236 kts | 156° |
| 2026-05-04 12:05 | -38.10384 | 146.96094 | 1184 ft | 204 kts | 103° |
| 2026-05-04 12:05 | -38.11313 | 146.96945 | 988 ft | 156 kts | 191° |
| 2026-05-04 12:06 | -38.12048 | 146.96117 | 671 ft | 143 kts | 258° |
| 2026-05-04 12:06 | -38.11794 | 146.94819 | 844 ft | 168 kts | 307° |
| 2026-05-04 12:06 | -38.10772 | 146.93898 | 894 ft | 193 kts | 338° |
| 2026-05-04 12:06 | -38.09389 | 146.93568 | 902 ft | 210 kts | 355° |
| 2026-05-04 12:07 | -38.07914 | 146.93477 | 1001 ft | 217 kts | 355° |
| 2026-05-04 12:07 | -38.06391 | 146.93436 | 1164 ft | 220 kts | 360° |
| 2026-05-04 12:07 | -38.05167 | 146.94484 | 1191 ft | 246 kts | 68° |
| 2026-05-04 12:07 | -38.05782 | 146.96491 | 783 ft | 269 kts | 143° |
| 2026-05-04 12:08 | -38.07568 | 146.96989 | 489 ft | 270 kts | 187° |
| 2026-05-04 12:08 | -38.09399 | 146.96623 | 479 ft | 261 kts | 190° |
| 2026-05-04 12:08 | -38.11124 | 146.96460 | 953 ft | 243 kts | 171° |
| 2026-05-04 12:08 | -38.12637 | 146.97354 | 1250 ft | 240 kts | 149° |
| 2026-05-04 12:09 | -38.14138 | 146.98225 | 1454 ft | 238 kts | 174° |
| 2026-05-04 12:09 | -38.15606 | 146.97574 | 1506 ft | 227 kts | 234° |
| 2026-05-04 12:09 | -38.15571 | 146.95744 | 1138 ft | 231 kts | 313° |
| 2026-05-04 12:09 | -38.14035 | 146.95367 | 1025 ft | 243 kts | 14° |
| 2026-05-04 12:10 | -38.12495 | 146.96222 | 1188 ft | 238 kts | 22° |
| 2026-05-04 12:10 | -38.11079 | 146.97236 | 1433 ft | 232 kts | 26° |
| 2026-05-04 12:10 | -38.10158 | 146.97954 | 1407 ft | 236 kts | 28° |
| 2026-05-04 12:10 | -38.08791 | 146.99123 | 1428 ft | 238 kts | 30° |
| 2026-05-04 12:11 | -38.07134 | 147.00951 | 1493 ft | 244 kts | 48° |
| 2026-05-04 12:11 | -38.06495 | 147.02986 | 1371 ft | 259 kts | 79° |
| 2026-05-04 12:11 | -38.07042 | 147.05195 | 1002 ft | 276 kts | 128° |
| 2026-05-04 12:11 | -38.08371 | 147.06941 | 834 ft | 273 kts | 131° |
| 2026-05-04 12:12 | -38.09022 | 147.08325 | 712 ft | 270 kts | 109° |
| 2026-05-04 12:12 | -38.09311 | 147.10631 | 425 ft | 268 kts | 95° |
| 2026-05-04 12:12 | -38.09582 | 147.12973 | 205 ft | 266 kts | 99° |
| 2026-05-04 12:12 | -38.09882 | 147.15261 | 190 ft | 258 kts | 99° |
| 2026-05-04 12:13 | -38.10198 | 147.17432 | 443 ft | 225 kts | 98° |
| 2026-05-04 12:14 | -38.08733 | 147.12143 | 700 ft | 115 kts | 283° |
| 2026-05-04 12:15 | -38.08891 | 147.11301 | 570 ft | 107 kts | 205° |
| 2026-05-04 12:15 | -38.09433 | 147.11861 | 199 ft | 116 kts | 103° |
| 2026-05-04 12:15 | -38.09565 | 147.12819 | 72 ft | 106 kts | 97° |
| 2026-05-04 12:15 | -38.09671 | 147.13647 | 32 ft | 82 kts | 96° |
| 2026-05-04 12:16 | -38.09734 | 147.14246 | 27 ft | 58 kts | 100° |
| 2026-05-04 12:16 | -38.09781 | 147.14655 | 21 ft | 28 kts | 98° |
| 2026-05-04 12:16 | -38.09853 | 147.14718 | 20 ft | 14 kts | 217° |
| 2026-05-04 12:16 | -38.09904 | 147.14625 | 20 ft | 12 kts | 252° |
| 2026-05-04 12:17 | -38.09907 | 147.14507 | 25 ft | 15 kts | 284° |
| 2026-05-04 12:17 | -38.09888 | 147.14380 | 24 ft | 15 kts | 279° |
| 2026-05-04 12:17 | -38.09873 | 147.14253 | 24 ft | 14 kts | 279° |
| 2026-05-04 12:17 | -38.09858 | 147.14124 | 27 ft | 16 kts | 283° |
| 2026-05-04 12:18 | -38.09884 | 147.14038 | 29 ft | 12 kts | 187° |
| 2026-05-04 12:18 | -38.09918 | 147.13968 | 29 ft | 11 kts | 283° |
| 2026-05-04 12:18 | -38.09906 | 147.13862 | 28 ft | 14 kts | 275° |
| 2026-05-04 12:18 | -38.09889 | 147.13736 | 27 ft | 15 kts | 275° |
| 2026-05-04 12:19 | -38.09876 | 147.13619 | 27 ft | 9 kts | 279° |
| 2026-05-04 12:19 | -38.09893 | 147.13595 | 27 ft | 0 kts | 166° |
| 2026-05-04 12:19 | -38.09902 | 147.13594 | 27 ft | 0 kts | 191° |